sensor_id;sensor_type;location;lat;lon;timestamp;pressure;altitude;pressure_sealevel;temperature;humidity
27840;BME280;15207;42.182;24.308;2022-12-29T00:01:36;100422.22;;;4.70;97.47
27840;BME280;15207;42.182;24.308;2022-12-29T00:04:02;100423.78;;;4.76;97.44
27840;BME280;15207;42.182;24.308;2022-12-29T00:06:28;100419.72;;;4.66;96.43
27840;BME280;15207;42.182;24.308;2022-12-29T00:08:54;100426.28;;;4.55;96.91
27840;BME280;15207;42.182;24.308;2022-12-29T00:11:24;100421.97;;;4.53;97.33
27840;BME280;15207;42.182;24.308;2022-12-29T00:13:50;100423.38;;;4.38;98.21
27840;BME280;15207;42.182;24.308;2022-12-29T00:16:35;100428.78;;;4.84;98.07
27840;BME280;15207;42.182;24.308;2022-12-29T00:19:02;100427.34;;;4.75;98.64
27840;BME280;15207;42.182;24.308;2022-12-29T00:21:28;100432.28;;;4.86;98.03
27840;BME280;15207;42.182;24.308;2022-12-29T00:24:18;100436.06;;;4.79;97.12
27840;BME280;15207;42.182;24.308;2022-12-29T00:26:50;100438.56;;;4.83;97.43
27840;BME280;15207;42.182;24.308;2022-12-29T00:29:36;100437.25;;;4.95;96.72
27840;BME280;15207;42.182;24.308;2022-12-29T00:32:20;100443.03;;;4.81;97.08
27840;BME280;15207;42.182;24.308;2022-12-29T00:35:06;100448.19;;;4.86;97.59
27840;BME280;15207;42.182;24.308;2022-12-29T00:37:41;100449.75;;;4.92;97.23
27840;BME280;15207;42.182;24.308;2022-12-29T00:40:26;100451.22;;;5.00;96.97
27840;BME280;15207;42.182;24.308;2022-12-29T00:43:10;100456.38;;;5.03;97.05
27840;BME280;15207;42.182;24.308;2022-12-29T00:45:55;100457.56;;;5.20;96.20
27840;BME280;15207;42.182;24.308;2022-12-29T00:48:20;100454.53;;;5.29;95.54
27840;BME280;15207;42.182;24.308;2022-12-29T00:51:05;100450.63;;;5.16;95.74
27840;BME280;15207;42.182;24.308;2022-12-29T00:53:31;100442.91;;;5.10;96.19
27840;BME280;15207;42.182;24.308;2022-12-29T00:55:57;100450.88;;;5.10;96.17
27840;BME280;15207;42.182;24.308;2022-12-29T00:58:22;100445.91;;;5.00;96.57
27840;BME280;15207;42.182;24.308;2022-12-29T01:00:48;100451.50;;;4.93;96.97
27840;BME280;15207;42.182;24.308;2022-12-29T01:03:13;100452.47;;;4.90;97.05
27840;BME280;15207;42.182;24.308;2022-12-29T01:05:39;100450.56;;;4.94;97.08
27840;BME280;15207;42.182;24.308;2022-12-29T01:08:04;100454.16;;;4.93;97.40
27840;BME280;15207;42.182;24.308;2022-12-29T01:10:30;100453.31;;;4.90;97.74
27840;BME280;15207;42.182;24.308;2022-12-29T01:12:55;100440.88;;;4.93;97.43
27840;BME280;15207;42.182;24.308;2022-12-29T01:15:21;100442.84;;;4.87;98.28
27840;BME280;15207;42.182;24.308;2022-12-29T01:17:47;100447.38;;;4.84;98.90
27840;BME280;15207;42.182;24.308;2022-12-29T01:20:13;100439.31;;;4.87;98.90
27840;BME280;15207;42.182;24.308;2022-12-29T01:22:39;100435.25;;;4.76;99.36
27840;BME280;15207;42.182;24.308;2022-12-29T01:25:05;100435.09;;;4.81;99.42
27840;BME280;15207;42.182;24.308;2022-12-29T01:27:31;100433.13;;;4.86;99.48
27840;BME280;15207;42.182;24.308;2022-12-29T01:29:56;100427.75;;;4.88;99.24
27840;BME280;15207;42.182;24.308;2022-12-29T01:32:22;100426.84;;;4.89;99.45
27840;BME280;15207;42.182;24.308;2022-12-29T01:34:47;100423.88;;;4.97;99.31
27840;BME280;15207;42.182;24.308;2022-12-29T01:37:13;100418.56;;;4.97;98.87
27840;BME280;15207;42.182;24.308;2022-12-29T01:39:39;100410.75;;;4.94;99.26
27840;BME280;15207;42.182;24.308;2022-12-29T01:42:14;100407.91;;;4.98;98.92
27840;BME280;15207;42.182;24.308;2022-12-29T01:47:20;100412.06;;;5.06;98.25
27840;BME280;15207;42.182;24.308;2022-12-29T01:49:46;100403.31;;;5.02;98.00
27840;BME280;15207;42.182;24.308;2022-12-29T01:52:12;100403.47;;;4.99;97.72
27840;BME280;15207;42.182;24.308;2022-12-29T01:54:42;100398.94;;;5.01;97.81
27840;BME280;15207;42.182;24.308;2022-12-29T01:57:13;100395.75;;;4.93;98.21
27840;BME280;15207;42.182;24.308;2022-12-29T01:59:46;100396.66;;;4.92;98.39
27840;BME280;15207;42.182;24.308;2022-12-29T02:02:14;100385.81;;;4.98;98.29
27840;BME280;15207;42.182;24.308;2022-12-29T02:04:41;100378.69;;;4.98;97.45
27840;BME280;15207;42.182;24.308;2022-12-29T02:07:17;100378.59;;;5.01;97.09
27840;BME280;15207;42.182;24.308;2022-12-29T02:09:47;100378.59;;;5.01;96.93
27840;BME280;15207;42.182;24.308;2022-12-29T02:12:14;100386.50;;;4.79;96.30
27840;BME280;15207;42.182;24.308;2022-12-29T02:14:40;100383.59;;;4.85;96.70
27840;BME280;15207;42.182;24.308;2022-12-29T02:17:21;100376.00;;;4.76;96.50
27840;BME280;15207;42.182;24.308;2022-12-29T02:31:19;100369.13;;;4.46;96.65
27840;BME280;15207;42.182;24.308;2022-12-29T02:40:04;100371.88;;;4.43;98.52
27840;BME280;15207;42.182;24.308;2022-12-29T02:42:48;100370.94;;;4.20;99.01
27840;BME280;15207;42.182;24.308;2022-12-29T02:45:34;100370.75;;;4.25;99.43
27840;BME280;15207;42.182;24.308;2022-12-29T02:51:02;100363.72;;;3.99;100.00
27840;BME280;15207;42.182;24.308;2022-12-29T02:53:30;100359.59;;;3.90;100.00
27840;BME280;15207;42.182;24.308;2022-12-29T02:56:15;100349.66;;;3.96;100.00
27840;BME280;15207;42.182;24.308;2022-12-29T02:58:41;100346.66;;;4.07;100.00
27840;BME280;15207;42.182;24.308;2022-12-29T03:04:26;100348.16;;;3.89;99.76
27840;BME280;15207;42.182;24.308;2022-12-29T03:10:10;100335.63;;;3.67;100.00
27840;BME280;15207;42.182;24.308;2022-12-29T03:12:55;100341.34;;;3.55;100.00
27840;BME280;15207;42.182;24.308;2022-12-29T03:15:46;100338.44;;;3.63;100.00
27840;BME280;15207;42.182;24.308;2022-12-29T03:21:37;100335.50;;;3.72;98.61
27840;BME280;15207;42.182;24.308;2022-12-29T03:24:27;100334.81;;;3.65;98.42
27840;BME280;15207;42.182;24.308;2022-12-29T03:26:54;100336.28;;;3.74;98.02
27840;BME280;15207;42.182;24.308;2022-12-29T03:29:22;100346.72;;;3.79;97.46
27840;BME280;15207;42.182;24.308;2022-12-29T03:31:51;100345.00;;;3.78;96.24
27840;BME280;15207;42.182;24.308;2022-12-29T03:34:20;100349.03;;;3.63;95.58
27840;BME280;15207;42.182;24.308;2022-12-29T03:36:51;100351.16;;;3.51;95.99
27840;BME280;15207;42.182;24.308;2022-12-29T03:39:21;100350.66;;;3.40;95.77
27840;BME280;15207;42.182;24.308;2022-12-29T03:41:49;100355.94;;;3.40;95.28
27840;BME280;15207;42.182;24.308;2022-12-29T03:44:17;100352.78;;;3.28;95.98
27840;BME280;15207;42.182;24.308;2022-12-29T03:46:42;100352.72;;;3.32;96.62
27840;BME280;15207;42.182;24.308;2022-12-29T03:49:08;100348.78;;;3.15;96.72
27840;BME280;15207;42.182;24.308;2022-12-29T03:51:33;100362.00;;;3.16;96.60
27840;BME280;15207;42.182;24.308;2022-12-29T03:53:59;100349.75;;;3.12;96.91
27840;BME280;15207;42.182;24.308;2022-12-29T03:56:25;100355.88;;;3.14;96.88
27840;BME280;15207;42.182;24.308;2022-12-29T03:58:50;100360.47;;;3.09;97.29
27840;BME280;15207;42.182;24.308;2022-12-29T04:01:16;100351.56;;;3.12;97.25
27840;BME280;15207;42.182;24.308;2022-12-29T04:03:41;100353.97;;;3.20;96.45
27840;BME280;15207;42.182;24.308;2022-12-29T04:06:07;100357.94;;;3.04;96.38
27840;BME280;15207;42.182;24.308;2022-12-29T04:08:32;100357.69;;;2.84;96.63
27840;BME280;15207;42.182;24.308;2022-12-29T04:10:58;100355.06;;;2.82;97.70
27840;BME280;15207;42.182;24.308;2022-12-29T04:13:23;100361.06;;;2.89;99.03
27840;BME280;15207;42.182;24.308;2022-12-29T04:15:49;100360.13;;;2.90;99.08
27840;BME280;15207;42.182;24.308;2022-12-29T04:18:14;100362.91;;;2.87;99.25
27840;BME280;15207;42.182;24.308;2022-12-29T04:20:41;100364.63;;;2.88;100.00
27840;BME280;15207;42.182;24.308;2022-12-29T04:23:25;100365.34;;;2.93;100.00
27840;BME280;15207;42.182;24.308;2022-12-29T04:25:51;100368.28;;;2.84;100.00
27840;BME280;15207;42.182;24.308;2022-12-29T04:28:16;100362.34;;;2.75;100.00
27840;BME280;15207;42.182;24.308;2022-12-29T04:30:45;100381.69;;;2.77;100.00
27840;BME280;15207;42.182;24.308;2022-12-29T04:33:11;100378.50;;;2.66;100.00
27840;BME280;15207;42.182;24.308;2022-12-29T04:35:36;100378.34;;;2.71;100.00
27840;BME280;15207;42.182;24.308;2022-12-29T04:38:02;100381.03;;;2.69;100.00
27840;BME280;15207;42.182;24.308;2022-12-29T04:40:28;100378.34;;;2.71;100.00
27840;BME280;15207;42.182;24.308;2022-12-29T04:42:53;100381.19;;;2.64;100.00
27840;BME280;15207;42.182;24.308;2022-12-29T04:45:19;100381.34;;;2.58;100.00
27840;BME280;15207;42.182;24.308;2022-12-29T04:47:45;100373.38;;;2.60;100.00
27840;BME280;15207;42.182;24.308;2022-12-29T04:50:10;100373.50;;;2.55;100.00
27840;BME280;15207;42.182;24.308;2022-12-29T04:52:36;100380.69;;;2.51;100.00
27840;BME280;15207;42.182;24.308;2022-12-29T04:55:02;100379.09;;;2.44;100.00
27840;BME280;15207;42.182;24.308;2022-12-29T04:57:28;100374.53;;;2.49;100.00
27840;BME280;15207;42.182;24.308;2022-12-29T04:59:54;100372.53;;;2.59;100.00
27840;BME280;15207;42.182;24.308;2022-12-29T05:02:19;100373.06;;;2.71;100.00
27840;BME280;15207;42.182;24.308;2022-12-29T05:04:45;100374.75;;;2.73;100.00
27840;BME280;15207;42.182;24.308;2022-12-29T05:07:11;100373.66;;;2.81;100.00
27840;BME280;15207;42.182;24.308;2022-12-29T05:09:37;100373.34;;;2.91;100.00
27840;BME280;15207;42.182;24.308;2022-12-29T05:12:03;100374.13;;;2.94;100.00
27840;BME280;15207;42.182;24.308;2022-12-29T05:14:29;100367.59;;;3.06;100.00
27840;BME280;15207;42.182;24.308;2022-12-29T05:20:17;100364.84;;;3.10;100.00
27840;BME280;15207;42.182;24.308;2022-12-29T05:22:42;100379.66;;;2.86;99.68
27840;BME280;15207;42.182;24.308;2022-12-29T05:25:08;100375.50;;;2.47;99.09
27840;BME280;15207;42.182;24.308;2022-12-29T05:27:33;100375.78;;;2.36;98.69
27840;BME280;15207;42.182;24.308;2022-12-29T05:29:59;100376.81;;;2.32;98.99
27840;BME280;15207;42.182;24.308;2022-12-29T05:32:25;100368.50;;;2.13;99.25
27840;BME280;15207;42.182;24.308;2022-12-29T05:34:51;100374.88;;;2.05;100.00
27840;BME280;15207;42.182;24.308;2022-12-29T05:37:16;100363.97;;;1.84;99.98
27840;BME280;15207;42.182;24.308;2022-12-29T05:39:42;100366.50;;;1.88;100.00
27840;BME280;15207;42.182;24.308;2022-12-29T05:42:08;100372.28;;;2.02;100.00
27840;BME280;15207;42.182;24.308;2022-12-29T05:44:33;100366.00;;;2.08;100.00
27840;BME280;15207;42.182;24.308;2022-12-29T05:46:59;100365.09;;;2.07;100.00
27840;BME280;15207;42.182;24.308;2022-12-29T05:49:24;100368.88;;;1.98;100.00
27840;BME280;15207;42.182;24.308;2022-12-29T05:55:08;100371.09;;;2.14;100.00
27840;BME280;15207;42.182;24.308;2022-12-29T05:57:34;100364.06;;;2.15;100.00
27840;BME280;15207;42.182;24.308;2022-12-29T05:59:59;100370.59;;;2.33;99.17
27840;BME280;15207;42.182;24.308;2022-12-29T06:02:25;100379.50;;;2.30;98.88
27840;BME280;15207;42.182;24.308;2022-12-29T06:04:50;100384.53;;;2.06;98.49
27840;BME280;15207;42.182;24.308;2022-12-29T06:07:16;100382.63;;;2.11;98.09
27840;BME280;15207;42.182;24.308;2022-12-29T06:09:41;100386.19;;;2.10;97.94
27840;BME280;15207;42.182;24.308;2022-12-29T06:12:07;100383.84;;;1.98;99.31
27840;BME280;15207;42.182;24.308;2022-12-29T06:14:32;100395.00;;;2.11;100.00
27840;BME280;15207;42.182;24.308;2022-12-29T06:16:58;100394.06;;;2.12;100.00
27840;BME280;15207;42.182;24.308;2022-12-29T06:19:25;100392.06;;;2.20;100.00
27840;BME280;15207;42.182;24.308;2022-12-29T06:21:51;100399.06;;;2.23;100.00
27840;BME280;15207;42.182;24.308;2022-12-29T06:24:18;100389.94;;;2.35;100.00
27840;BME280;15207;42.182;24.308;2022-12-29T06:26:44;100390.03;;;2.32;100.00
27840;BME280;15207;42.182;24.308;2022-12-29T06:29:09;100401.75;;;2.21;100.00
27840;BME280;15207;42.182;24.308;2022-12-29T06:31:35;100399.69;;;2.33;100.00
27840;BME280;15207;42.182;24.308;2022-12-29T06:34:00;100403.06;;;2.38;100.00
27840;BME280;15207;42.182;24.308;2022-12-29T06:36:26;100411.38;;;2.56;100.00
27840;BME280;15207;42.182;24.308;2022-12-29T06:38:51;100418.53;;;2.54;100.00
27840;BME280;15207;42.182;24.308;2022-12-29T06:41:19;100421.09;;;2.57;100.00
27840;BME280;15207;42.182;24.308;2022-12-29T06:43:44;100417.75;;;2.82;99.70
27840;BME280;15207;42.182;24.308;2022-12-29T06:46:09;100419.81;;;2.70;99.93
27840;BME280;15207;42.182;24.308;2022-12-29T06:48:35;100424.09;;;2.74;100.00
27840;BME280;15207;42.182;24.308;2022-12-29T06:51:00;100420.91;;;2.63;100.00
27840;BME280;15207;42.182;24.308;2022-12-29T06:53:26;100420.06;;;2.61;100.00
27840;BME280;15207;42.182;24.308;2022-12-29T06:55:51;100428.34;;;2.48;100.00
27840;BME280;15207;42.182;24.308;2022-12-29T06:58:17;100436.03;;;2.58;100.00
27840;BME280;15207;42.182;24.308;2022-12-29T07:00:42;100429.88;;;2.57;100.00
27840;BME280;15207;42.182;24.308;2022-12-29T07:03:08;100431.41;;;2.66;100.00
27840;BME280;15207;42.182;24.308;2022-12-29T07:05:33;100427.88;;;2.66;100.00
27840;BME280;15207;42.182;24.308;2022-12-29T07:07:59;100435.44;;;2.80;100.00
27840;BME280;15207;42.182;24.308;2022-12-29T07:10:25;100433.28;;;2.93;100.00
27840;BME280;15207;42.182;24.308;2022-12-29T07:12:51;100428.56;;;3.04;100.00
27840;BME280;15207;42.182;24.308;2022-12-29T07:15:17;100433.41;;;3.20;100.00
27840;BME280;15207;42.182;24.308;2022-12-29T07:17:43;100429.66;;;3.25;100.00
27840;BME280;15207;42.182;24.308;2022-12-29T07:20:09;100434.84;;;3.30;100.00
27840;BME280;15207;42.182;24.308;2022-12-29T07:22:35;100428.34;;;3.40;100.00
27840;BME280;15207;42.182;24.308;2022-12-29T07:25:01;100435.22;;;3.46;98.92
27840;BME280;15207;42.182;24.308;2022-12-29T07:27:27;100430.31;;;3.62;98.97
27840;BME280;15207;42.182;24.308;2022-12-29T07:29:53;100429.22;;;3.69;98.23
27840;BME280;15207;42.182;24.308;2022-12-29T07:32:19;100426.31;;;3.77;98.53
27840;BME280;15207;42.182;24.308;2022-12-29T07:34:44;100425.25;;;3.81;98.28
27840;BME280;15207;42.182;24.308;2022-12-29T07:37:14;100426.50;;;4.23;97.48
27840;BME280;15207;42.182;24.308;2022-12-29T07:39:40;100426.13;;;4.34;96.78
27840;BME280;15207;42.182;24.308;2022-12-29T07:42:05;100426.38;;;4.28;96.65
27840;BME280;15207;42.182;24.308;2022-12-29T07:44:31;100421.16;;;4.25;96.92
27840;BME280;15207;42.182;24.308;2022-12-29T07:46:57;100421.31;;;4.46;96.44
27840;BME280;15207;42.182;24.308;2022-12-29T07:49:22;100419.34;;;4.51;96.19
27840;BME280;15207;42.182;24.308;2022-12-29T07:51:48;100415.81;;;4.52;96.71
27840;BME280;15207;42.182;24.308;2022-12-29T07:54:13;100419.72;;;4.66;96.53
27840;BME280;15207;42.182;24.308;2022-12-29T07:56:39;100411.53;;;4.72;96.13
27840;BME280;15207;42.182;24.308;2022-12-29T07:59:05;100412.88;;;4.84;95.73
27840;BME280;15207;42.182;24.308;2022-12-29T08:01:31;100408.59;;;5.03;94.84
27840;BME280;15207;42.182;24.308;2022-12-29T08:03:56;100411.78;;;5.13;94.46
27840;BME280;15207;42.182;24.308;2022-12-29T08:06:22;100414.38;;;5.15;94.65
27840;BME280;15207;42.182;24.308;2022-12-29T08:08:48;100418.19;;;5.30;94.56
27840;BME280;15207;42.182;24.308;2022-12-29T08:11:13;100409.09;;;5.37;94.21
27840;BME280;15207;42.182;24.308;2022-12-29T08:13:38;100407.47;;;5.55;94.35
27840;BME280;15207;42.182;24.308;2022-12-29T08:16:04;100407.94;;;5.65;94.24
27840;BME280;15207;42.182;24.308;2022-12-29T08:18:30;100410.44;;;5.70;93.32
27840;BME280;15207;42.182;24.308;2022-12-29T08:21:01;100408.53;;;5.94;93.45
27840;BME280;15207;42.182;24.308;2022-12-29T08:23:27;100407.25;;;6.05;92.08
27840;BME280;15207;42.182;24.308;2022-12-29T08:25:59;100399.00;;;6.11;91.66
27840;BME280;15207;42.182;24.308;2022-12-29T08:28:26;100399.94;;;6.31;91.91
27840;BME280;15207;42.182;24.308;2022-12-29T08:30:51;100403.44;;;6.52;89.65
27840;BME280;15207;42.182;24.308;2022-12-29T08:33:17;100392.97;;;6.68;89.21
27840;BME280;15207;42.182;24.308;2022-12-29T08:35:43;100397.53;;;7.05;88.45
27840;BME280;15207;42.182;24.308;2022-12-29T08:38:09;100400.25;;;7.22;85.38
27840;BME280;15207;42.182;24.308;2022-12-29T08:40:36;100397.84;;;7.35;83.79
27840;BME280;15207;42.182;24.308;2022-12-29T08:43:02;100393.34;;;7.55;82.62
27840;BME280;15207;42.182;24.308;2022-12-29T08:45:27;100389.28;;;7.65;81.66
27840;BME280;15207;42.182;24.308;2022-12-29T08:47:53;100386.13;;;7.94;80.93
27840;BME280;15207;42.182;24.308;2022-12-29T08:50:18;100379.69;;;7.98;80.49
27840;BME280;15207;42.182;24.308;2022-12-29T08:52:44;100378.91;;;8.14;80.32
27840;BME280;15207;42.182;24.308;2022-12-29T08:55:09;100373.94;;;8.24;79.76
27840;BME280;15207;42.182;24.308;2022-12-29T08:57:35;100368.19;;;8.31;79.34
27840;BME280;15207;42.182;24.308;2022-12-29T09:00:02;100373.50;;;8.49;77.64
27840;BME280;15207;42.182;24.308;2022-12-29T09:02:27;100368.22;;;8.65;77.32
27840;BME280;15207;42.182;24.308;2022-12-29T09:04:53;100363.78;;;8.98;76.84
27840;BME280;15207;42.182;24.308;2022-12-29T09:07:19;100355.44;;;9.04;75.24
27840;BME280;15207;42.182;24.308;2022-12-29T09:09:44;100351.81;;;9.21;74.58
27840;BME280;15207;42.182;24.308;2022-12-29T09:12:10;100354.97;;;9.28;73.41
27840;BME280;15207;42.182;24.308;2022-12-29T09:14:35;100348.00;;;9.25;73.17
27840;BME280;15207;42.182;24.308;2022-12-29T09:17:01;100341.59;;;9.44;73.27
27840;BME280;15207;42.182;24.308;2022-12-29T09:19:45;100344.50;;;9.56;71.98
27840;BME280;15207;42.182;24.308;2022-12-29T09:22:11;100338.03;;;9.60;71.94
27840;BME280;15207;42.182;24.308;2022-12-29T09:24:36;100328.75;;;9.82;70.17
27840;BME280;15207;42.182;24.308;2022-12-29T09:27:02;100322.56;;;9.96;69.84
27840;BME280;15207;42.182;24.308;2022-12-29T09:29:28;100326.81;;;10.14;70.11
27840;BME280;15207;42.182;24.308;2022-12-29T09:31:54;100322.88;;;10.35;68.96
27840;BME280;15207;42.182;24.308;2022-12-29T09:34:19;100321.31;;;10.47;67.90
27840;BME280;15207;42.182;24.308;2022-12-29T09:36:45;100312.56;;;10.43;66.71
27840;BME280;15207;42.182;24.308;2022-12-29T09:39:10;100312.66;;;10.41;66.88
27840;BME280;15207;42.182;24.308;2022-12-29T09:44:28;100303.97;;;10.67;65.64
27840;BME280;15207;42.182;24.308;2022-12-29T09:46:57;100311.41;;;10.76;65.14
27840;BME280;15207;42.182;24.308;2022-12-29T09:49:29;100298.16;;;10.60;64.70
27840;BME280;15207;42.182;24.308;2022-12-29T09:52:01;100297.56;;;10.69;65.57
27840;BME280;15207;42.182;24.308;2022-12-29T09:54:45;100285.50;;;10.62;65.09
27840;BME280;15207;42.182;24.308;2022-12-29T09:57:21;100284.91;;;10.42;65.38
27840;BME280;15207;42.182;24.308;2022-12-29T09:59:49;100278.81;;;10.40;65.77
27840;BME280;15207;42.182;24.308;2022-12-29T10:02:20;100271.13;;;10.34;66.38
27840;BME280;15207;42.182;24.308;2022-12-29T10:04:49;100272.13;;;10.48;65.56
27840;BME280;15207;42.182;24.308;2022-12-29T10:07:42;100268.00;;;10.27;66.35
27840;BME280;15207;42.182;24.308;2022-12-29T10:23:52;100245.78;;;10.69;66.25
27840;BME280;15207;42.182;24.308;2022-12-29T10:26:21;100242.06;;;10.71;64.96
27840;BME280;15207;42.182;24.308;2022-12-29T10:29:03;100245.84;;;10.82;64.81
27840;BME280;15207;42.182;24.308;2022-12-29T10:31:35;100245.53;;;10.87;64.32
27840;BME280;15207;42.182;24.308;2022-12-29T10:34:13;100246.81;;;10.81;64.62
27840;BME280;15207;42.182;24.308;2022-12-29T10:36:43;100240.63;;;10.66;65.05
27840;BME280;15207;42.182;24.308;2022-12-29T10:39:37;100243.72;;;10.87;65.79
27840;BME280;15207;42.182;24.308;2022-12-29T10:42:09;100239.47;;;10.97;64.36
27840;BME280;15207;42.182;24.308;2022-12-29T10:44:36;100231.84;;;11.19;63.90
27840;BME280;15207;42.182;24.308;2022-12-29T10:47:06;100242.56;;;11.19;62.78
27840;BME280;15207;42.182;24.308;2022-12-29T10:49:36;100236.50;;;11.30;62.95
27840;BME280;15207;42.182;24.308;2022-12-29T10:52:03;100230.72;;;11.36;61.79
27840;BME280;15207;42.182;24.308;2022-12-29T10:54:31;100233.16;;;11.39;62.00
27840;BME280;15207;42.182;24.308;2022-12-29T10:57:04;100231.78;;;11.33;62.19
27840;BME280;15207;42.182;24.308;2022-12-29T10:59:35;100226.31;;;11.35;62.46
27840;BME280;15207;42.182;24.308;2022-12-29T11:07:01;100221.72;;;11.09;63.92
27840;BME280;15207;42.182;24.308;2022-12-29T11:09:28;100218.72;;;11.14;62.96
27840;BME280;15207;42.182;24.308;2022-12-29T11:11:55;100207.16;;;11.14;63.62
27840;BME280;15207;42.182;24.308;2022-12-29T11:14:27;100209.44;;;11.33;63.01
27840;BME280;15207;42.182;24.308;2022-12-29T11:17:00;100204.97;;;11.46;62.82
27840;BME280;15207;42.182;24.308;2022-12-29T11:19:31;100191.03;;;11.54;61.98
27840;BME280;15207;42.182;24.308;2022-12-29T11:22:21;100195.50;;;11.41;62.83
27840;BME280;15207;42.182;24.308;2022-12-29T11:24:50;100190.19;;;11.13;63.25
27840;BME280;15207;42.182;24.308;2022-12-29T11:27:20;100189.50;;;11.24;63.10
27840;BME280;15207;42.182;24.308;2022-12-29T11:29:51;100192.28;;;11.35;63.08
27840;BME280;15207;42.182;24.308;2022-12-29T11:32:21;100181.72;;;11.06;63.25
27840;BME280;15207;42.182;24.308;2022-12-29T11:34:47;100183.50;;;10.93;64.38
27840;BME280;15207;42.182;24.308;2022-12-29T11:37:29;100179.22;;;10.63;65.41
27840;BME280;15207;42.182;24.308;2022-12-29T11:40:14;100182.66;;;10.65;65.71
27840;BME280;15207;42.182;24.308;2022-12-29T11:42:42;100169.00;;;10.55;66.39
27840;BME280;15207;42.182;24.308;2022-12-29T11:45:31;100169.84;;;10.55;66.88
27840;BME280;15207;42.182;24.308;2022-12-29T11:48:14;100166.13;;;10.58;66.32
27840;BME280;15207;42.182;24.308;2022-12-29T11:50:50;100166.75;;;10.89;66.12
27840;BME280;15207;42.182;24.308;2022-12-29T11:53:43;100160.59;;;11.02;64.59
27840;BME280;15207;42.182;24.308;2022-12-29T11:56:22;100160.94;;;10.69;66.69
27840;BME280;15207;42.182;24.308;2022-12-29T11:58:56;100151.09;;;10.83;66.08
27840;BME280;15207;42.182;24.308;2022-12-29T12:01:40;100149.50;;;10.93;65.27
27840;BME280;15207;42.182;24.308;2022-12-29T12:04:13;100150.19;;;10.97;64.66
27840;BME280;15207;42.182;24.308;2022-12-29T12:06:46;100146.25;;;10.75;66.02
27840;BME280;15207;42.182;24.308;2022-12-29T12:09:46;100146.00;;;10.93;66.06
27840;BME280;15207;42.182;24.308;2022-12-29T12:12:35;100146.47;;;11.13;65.05
27840;BME280;15207;42.182;24.308;2022-12-29T12:15:03;100143.91;;;11.24;64.79
27840;BME280;15207;42.182;24.308;2022-12-29T12:17:33;100140.34;;;11.23;64.71
27840;BME280;15207;42.182;24.308;2022-12-29T12:25:54;100137.66;;;11.23;64.62
27840;BME280;15207;42.182;24.308;2022-12-29T12:31:34;100132.00;;;11.41;64.24
27840;BME280;15207;42.182;24.308;2022-12-29T12:34:06;100129.31;;;11.28;65.16
27840;BME280;15207;42.182;24.308;2022-12-29T12:44:32;100118.22;;;10.94;66.06
27840;BME280;15207;42.182;24.308;2022-12-29T12:56:00;100121.38;;;11.14;65.93
27840;BME280;15207;42.182;24.308;2022-12-29T12:58:55;100109.69;;;11.28;65.33
27840;BME280;15207;42.182;24.308;2022-12-29T13:20:49;100113.97;;;11.30;64.79
27840;BME280;15207;42.182;24.308;2022-12-29T13:31:42;100124.25;;;11.10;65.59
27840;BME280;15207;42.182;24.308;2022-12-29T13:36:40;100122.19;;;11.01;66.85
27840;BME280;15207;42.182;24.308;2022-12-29T13:39:57;100121.72;;;10.81;67.12
27840;BME280;15207;42.182;24.308;2022-12-29T13:42:26;100115.53;;;10.81;67.76
27840;BME280;15207;42.182;24.308;2022-12-29T13:44:57;100120.09;;;10.79;68.07
27840;BME280;15207;42.182;24.308;2022-12-29T13:49:54;100121.41;;;10.73;68.63
27840;BME280;15207;42.182;24.308;2022-12-29T13:52:36;100117.53;;;10.64;68.83
27840;BME280;15207;42.182;24.308;2022-12-29T13:58:02;100119.78;;;10.70;68.48
27840;BME280;15207;42.182;24.308;2022-12-29T14:00:35;100118.78;;;10.58;68.69
27840;BME280;15207;42.182;24.308;2022-12-29T14:08:44;100128.78;;;10.27;70.63
27840;BME280;15207;42.182;24.308;2022-12-29T14:11:11;100123.31;;;10.29;70.26
27840;BME280;15207;42.182;24.308;2022-12-29T14:13:42;100131.00;;;10.21;70.89
27840;BME280;15207;42.182;24.308;2022-12-29T14:16:24;100128.00;;;10.25;71.02
27840;BME280;15207;42.182;24.308;2022-12-29T14:18:51;100129.03;;;10.37;70.40
27840;BME280;15207;42.182;24.308;2022-12-29T14:21:21;100133.91;;;10.45;69.98
27840;BME280;15207;42.182;24.308;2022-12-29T14:23:51;100141.78;;;10.48;69.53
27840;BME280;15207;42.182;24.308;2022-12-29T14:28:56;100139.94;;;10.34;69.92
27840;BME280;15207;42.182;24.308;2022-12-29T14:38:59;100151.34;;;10.23;70.59
27840;BME280;15207;42.182;24.308;2022-12-29T14:41:30;100147.16;;;10.19;70.99
27840;BME280;15207;42.182;24.308;2022-12-29T14:43:58;100154.25;;;10.05;71.19
27840;BME280;15207;42.182;24.308;2022-12-29T14:46:25;100156.91;;;10.05;71.27
27840;BME280;15207;42.182;24.308;2022-12-29T14:49:15;100151.31;;;9.96;71.94
27840;BME280;15207;42.182;24.308;2022-12-29T14:51:41;100150.72;;;10.05;71.64
27840;BME280;15207;42.182;24.308;2022-12-29T14:55:27;100153.88;;;9.97;71.71
27840;BME280;15207;42.182;24.308;2022-12-29T14:59:53;100148.31;;;9.86;72.28
27840;BME280;15207;42.182;24.308;2022-12-29T15:02:20;100161.69;;;9.86;72.71
27840;BME280;15207;42.182;24.308;2022-12-29T15:04:47;100156.34;;;9.86;72.14
27840;BME280;15207;42.182;24.308;2022-12-29T15:07:15;100161.13;;;9.66;73.10
27840;BME280;15207;42.182;24.308;2022-12-29T15:09:56;100151.00;;;9.71;73.44
27840;BME280;15207;42.182;24.308;2022-12-29T15:12:41;100153.78;;;9.70;73.61
27840;BME280;15207;42.182;24.308;2022-12-29T15:15:35;100155.59;;;9.69;74.03
27840;BME280;15207;42.182;24.308;2022-12-29T15:17:56;100158.66;;;9.48;75.31
27840;BME280;15207;42.182;24.308;2022-12-29T15:20:30;100156.84;;;9.49;75.34